createdAt,value
2022-09-26T00:01:36.842Z,1.00
2022-09-26T00:04:14.032Z,0.95
2022-09-26T00:06:42.461Z,1.10
2022-09-26T00:09:10.298Z,1.17
2022-09-26T00:11:38.458Z,1.00
2022-09-26T00:14:09.089Z,1.13
2022-09-26T00:16:36.626Z,0.70
2022-09-26T00:19:04.549Z,1.10
2022-09-26T00:21:32.327Z,1.73
2022-09-26T00:24:00.987Z,0.90
2022-09-26T00:26:30.515Z,1.10
2022-09-26T00:28:58.728Z,1.05
2022-09-26T00:31:32.416Z,0.98
2022-09-26T00:34:00.373Z,0.90
2022-09-26T00:36:37.649Z,1.35
2022-09-26T00:39:11.176Z,0.93
2022-09-26T00:41:39.068Z,0.80
2022-09-26T00:44:38.358Z,0.85
2022-09-26T00:47:13.001Z,0.80
2022-09-26T00:49:44.548Z,1.10
2022-09-26T00:52:24.118Z,1.17
2022-09-26T00:54:54.722Z,0.95
2022-09-26T00:57:45.936Z,0.80
2022-09-26T01:00:15.736Z,0.98
2022-09-26T01:02:45.383Z,1.45
2022-09-26T01:05:16.723Z,0.88
2022-09-26T01:07:44.679Z,0.75
2022-09-26T01:10:12.448Z,1.00
2022-09-26T01:12:40.118Z,0.90
2022-09-26T01:15:09.165Z,0.95
2022-09-26T01:17:43.214Z,0.90
2022-09-26T01:20:35.214Z,0.70
2022-09-26T01:23:33.185Z,0.80
2022-09-26T01:26:31.808Z,0.85
2022-09-26T01:29:23.786Z,1.30
2022-09-26T01:32:39.042Z,1.00
2022-09-26T01:35:28.153Z,0.93
2022-09-26T01:38:17.104Z,1.05
2022-09-26T01:41:07.057Z,1.05
2022-09-26T01:43:51.241Z,0.70
2022-09-26T01:46:18.773Z,1.27
2022-09-26T01:48:54.453Z,1.10
2022-09-26T01:51:37.298Z,1.33
2022-09-26T01:54:17.772Z,1.20
2022-09-26T01:56:48.261Z,0.77
2022-09-26T01:59:32.599Z,1.00
2022-09-26T02:02:08.275Z,1.17
2022-09-26T02:04:40.588Z,0.80
2022-09-26T02:07:16.713Z,1.15
2022-09-26T02:09:59.164Z,1.00
2022-09-26T02:12:32.898Z,1.40
2022-09-26T02:15:08.158Z,1.15
2022-09-26T02:17:44.082Z,1.20
2022-09-26T02:20:19.435Z,1.00
2022-09-26T02:22:46.988Z,1.40
2022-09-26T02:25:16.645Z,0.63
2022-09-26T02:27:44.282Z,0.93
2022-09-26T02:30:12.569Z,1.20
2022-09-26T02:32:40.414Z,0.77
2022-09-26T02:35:27.609Z,1.00
2022-09-26T02:37:56.007Z,1.08
2022-09-26T02:40:32.626Z,1.20
2022-09-26T02:43:31.283Z,0.98
2022-09-26T02:46:06.597Z,0.77
2022-09-26T02:48:57.330Z,1.15
2022-09-26T02:51:39.738Z,0.90
2022-09-26T02:55:01.575Z,0.73
2022-09-26T02:58:07.781Z,0.60
2022-09-26T03:00:52.053Z,1.02
2022-09-26T03:03:41.014Z,0.75
2022-09-26T03:06:13.052Z,1.00
2022-09-26T03:08:45.597Z,0.93
2022-09-26T03:11:17.973Z,1.95
2022-09-26T03:13:46.627Z,0.63
2022-09-26T03:16:14.734Z,1.10
2022-09-26T03:18:55.237Z,0.80
2022-09-26T03:21:24.954Z,1.33
2022-09-26T03:23:52.569Z,0.85
2022-09-26T03:26:24.751Z,0.98
2022-09-26T03:28:59.706Z,1.02
2022-09-26T03:31:29.974Z,1.15
2022-09-26T03:34:02.240Z,1.52
2022-09-26T03:36:30.428Z,0.90
2022-09-26T03:38:57.896Z,0.75
2022-09-26T03:41:48.778Z,0.80
2022-09-26T03:44:22.159Z,1.02
2022-09-26T03:47:12.834Z,1.17
2022-09-26T03:49:43.430Z,1.15
2022-09-26T03:52:13.113Z,0.82
2022-09-26T03:54:41.409Z,1.15
2022-09-26T03:57:10.714Z,0.77
2022-09-26T03:59:42.881Z,1.17
2022-09-26T04:02:12.529Z,0.90
2022-09-26T04:04:43.978Z,1.10
2022-09-26T04:07:12.450Z,1.13
2022-09-26T04:09:39.891Z,1.63
2022-09-26T04:12:07.954Z,1.30
2022-09-26T04:14:40.342Z,1.80
2022-09-26T04:17:07.872Z,1.30
2022-09-26T04:19:42.536Z,1.23
2022-09-26T04:22:10.477Z,1.42
2022-09-26T04:24:38.604Z,1.30
2022-09-26T04:27:08.543Z,1.95
2022-09-26T04:29:36.529Z,1.60
2022-09-26T04:32:11.048Z,1.10
2022-09-26T04:34:56.326Z,1.58
2022-09-26T04:37:24.086Z,1.20
2022-09-26T04:39:51.493Z,1.10
2022-09-26T04:42:19.117Z,0.70
2022-09-26T04:44:46.814Z,1.10
2022-09-26T04:47:14.217Z,1.20
2022-09-26T04:50:01.577Z,0.98
2022-09-26T04:52:29.511Z,0.77
2022-09-26T04:54:57.239Z,1.20
2022-09-26T04:57:25.081Z,0.90
2022-09-26T04:59:52.369Z,0.80
2022-09-26T05:02:20.770Z,1.00
2022-09-26T05:04:48.402Z,0.77
2022-09-26T05:07:16.361Z,0.93
2022-09-26T05:09:44.824Z,0.80
2022-09-26T05:12:15.532Z,0.65
2022-09-26T05:14:46.340Z,0.70
2022-09-26T05:17:15.002Z,1.02
2022-09-26T05:19:44.799Z,0.70
2022-09-26T05:22:33.681Z,0.88
2022-09-26T05:25:23.630Z,0.73
2022-09-26T05:27:51.188Z,0.88
2022-09-26T05:30:19.891Z,0.80
2022-09-26T05:32:48.403Z,1.10
2022-09-26T05:35:17.115Z,0.85
2022-09-26T05:37:45.126Z,0.70
2022-09-26T05:40:31.620Z,0.90
2022-09-26T05:43:03.135Z,0.70
2022-09-26T05:45:33.371Z,1.08
2022-09-26T05:48:02.910Z,0.88
2022-09-26T05:50:31.125Z,0.77
2022-09-26T05:53:00.206Z,0.73
2022-09-26T05:55:29.399Z,0.90
2022-09-26T05:58:06.347Z,0.90
2022-09-26T06:00:52.515Z,1.00
2022-09-26T06:03:20.487Z,0.90
2022-09-26T06:06:11.297Z,0.70
2022-09-26T06:08:39.841Z,0.90
2022-09-26T06:11:30.933Z,0.98
2022-09-26T06:14:00.786Z,0.80
2022-09-26T06:16:28.995Z,0.93
2022-09-26T06:18:56.799Z,0.50
2022-09-26T06:21:24.421Z,1.25
2022-09-26T06:24:00.480Z,1.30
2022-09-26T06:26:30.151Z,1.73
2022-09-26T06:29:00.723Z,1.35
2022-09-26T06:31:34.047Z,1.48
2022-09-26T06:34:12.806Z,0.95
2022-09-26T06:36:59.663Z,1.08
2022-09-26T06:39:35.554Z,1.15
2022-09-26T06:42:07.374Z,0.65
2022-09-26T06:45:11.405Z,0.47
2022-09-26T06:48:07.851Z,0.68
2022-09-26T06:51:00.570Z,0.80
2022-09-26T06:53:31.242Z,0.93
2022-09-26T06:55:59.873Z,1.30
2022-09-26T06:58:28.003Z,1.20
2022-09-26T07:01:02.902Z,0.80
2022-09-26T07:03:45.677Z,0.93
2022-09-26T07:06:32.044Z,0.60
2022-09-26T07:09:03.825Z,0.80
2022-09-26T07:12:14.739Z,0.75
2022-09-26T07:14:43.362Z,0.60
2022-09-26T07:17:31.282Z,0.85
2022-09-26T07:20:16.726Z,0.60
2022-09-26T07:23:06.002Z,0.60
2022-09-26T07:25:33.891Z,0.50
2022-09-26T07:28:02.985Z,0.90
2022-09-26T07:30:58.782Z,0.57
2022-09-26T07:33:42.065Z,0.80
2022-09-26T07:36:11.913Z,0.70
2022-09-26T07:38:40.242Z,0.73
2022-09-26T07:41:11.262Z,0.73
2022-09-26T07:44:30.315Z,1.00
2022-09-26T07:46:47.095Z,0.80
2022-09-26T07:49:33.297Z,0.60
2022-09-26T07:52:11.735Z,0.75
2022-09-26T07:54:50.410Z,0.70
2022-09-26T07:57:36.778Z,0.73
2022-09-26T08:00:21.526Z,0.70
2022-09-26T08:03:02.660Z,0.80
2022-09-26T08:05:32.300Z,0.82
2022-09-26T08:08:00.138Z,0.95
2022-09-26T08:10:50.741Z,1.00
2022-09-26T08:13:36.843Z,0.85
2022-09-26T08:16:23.351Z,0.68
2022-09-26T08:18:54.916Z,0.80
2022-09-26T08:21:23.157Z,1.13
2022-09-26T08:23:56.894Z,0.68
2022-09-26T08:26:45.128Z,1.05
2022-09-26T08:29:17.935Z,0.82
2022-09-26T08:31:47.934Z,1.30
2022-09-26T08:34:15.808Z,0.95
2022-09-26T08:36:54.255Z,1.25
2022-09-26T08:39:38.334Z,1.25
2022-09-26T08:43:20.819Z,2.35
2022-09-26T08:47:02.510Z,1.30
2022-09-26T08:50:20.753Z,1.25
2022-09-26T08:52:52.227Z,1.40
2022-09-26T08:55:27.061Z,1.92
2022-09-26T08:58:15.315Z,1.88
2022-09-26T09:00:43.754Z,1.80
2022-09-26T09:06:11.940Z,2.15
2022-09-26T09:08:46.205Z,2.00
2022-09-26T09:11:43.750Z,2.80
2022-09-26T09:14:19.381Z,1.83
2022-09-26T09:17:24.421Z,2.00
2022-09-26T09:20:28.022Z,2.40
2022-09-26T09:23:41.174Z,2.00
2022-09-26T09:29:25.189Z,1.85
2022-09-26T09:32:29.009Z,1.85
2022-09-26T09:35:18.733Z,1.75
2022-09-26T09:38:03.350Z,2.90
2022-09-26T09:41:06.009Z,2.20
2022-09-26T09:43:42.528Z,2.35
2022-09-26T09:46:17.119Z,2.33
2022-09-26T09:48:48.147Z,1.95
2022-09-26T09:51:31.072Z,1.83
2022-09-26T09:54:25.735Z,2.85
2022-09-26T09:57:25.901Z,2.65
2022-09-26T10:00:03.681Z,2.47
2022-09-26T10:03:01.438Z,2.20
2022-09-26T10:05:50.492Z,2.85
2022-09-26T10:08:36.131Z,2.67
2022-09-26T10:11:43.286Z,2.50
2022-09-26T10:14:43.024Z,3.78
2022-09-26T10:17:31.225Z,3.40
2022-09-26T10:20:38.010Z,2.60
2022-09-26T10:23:24.155Z,2.65
2022-09-26T10:25:55.632Z,2.53
2022-09-26T10:28:52.611Z,3.17
2022-09-26T10:31:42.927Z,3.15
2022-09-26T10:34:30.555Z,3.05
2022-09-26T10:37:17.564Z,2.22
2022-09-26T10:40:28.867Z,2.67
2022-09-26T10:43:25.028Z,2.45
2022-09-26T10:46:04.880Z,2.53
2022-09-26T10:48:56.872Z,2.97
2022-09-26T10:51:50.865Z,2.65
2022-09-26T10:54:41.392Z,2.45
2022-09-26T10:57:20.083Z,2.38
2022-09-26T10:59:48.958Z,2.95
2022-09-26T11:02:23.779Z,2.05
2022-09-26T11:05:16.415Z,2.25
2022-09-26T11:07:47.263Z,2.72
2022-09-26T11:10:42.069Z,2.08
2022-09-26T11:14:03.535Z,3.25
2022-09-26T11:16:43.923Z,2.33
2022-09-26T11:19:39.052Z,2.20
2022-09-26T11:22:20.128Z,2.00
2022-09-26T11:24:59.401Z,3.20
2022-09-26T11:27:47.809Z,2.95
2022-09-26T11:30:23.261Z,2.70
2022-09-26T11:33:00.975Z,2.63
2022-09-26T11:38:46.968Z,2.20
2022-09-26T11:41:37.318Z,2.53
2022-09-26T11:44:34.773Z,2.60
2022-09-26T11:47:39.826Z,3.60
2022-09-26T11:50:23.679Z,2.22
2022-09-26T11:53:54.755Z,1.73
2022-09-26T11:56:42.202Z,2.30
2022-09-26T11:59:22.002Z,1.77
2022-09-26T12:02:18.566Z,1.55
2022-09-26T12:05:01.973Z,1.58
2022-09-26T12:10:32.509Z,1.52
2022-09-26T12:13:06.479Z,1.77
2022-09-26T12:15:56.249Z,1.50
2022-09-26T12:22:10.330Z,1.65
2022-09-26T12:25:00.647Z,1.70
2022-09-26T12:28:10.213Z,1.23
2022-09-26T12:30:52.565Z,1.98
2022-09-26T12:33:28.895Z,1.42
2022-09-26T12:36:10.064Z,1.40
2022-09-26T12:38:58.777Z,1.30
2022-09-26T12:41:41.933Z,0.85
2022-09-26T12:44:33.861Z,1.50
2022-09-26T12:47:28.259Z,0.88
2022-09-26T12:50:07.940Z,0.85
2022-09-26T12:52:50.487Z,1.50
2022-09-26T12:55:43.059Z,1.17
2022-09-26T12:58:19.437Z,1.20
2022-09-26T13:01:09.350Z,0.77
2022-09-26T13:03:59.839Z,1.00
2022-09-26T13:07:07.629Z,1.10
2022-09-26T13:09:57.233Z,0.93
2022-09-26T13:13:00.091Z,0.90
2022-09-26T13:15:40.032Z,0.98
2022-09-26T13:18:16.514Z,1.17
2022-09-26T13:20:49.972Z,1.00
2022-09-26T13:23:34.973Z,1.00
2022-09-26T13:26:31.599Z,1.05
2022-09-26T13:29:23.233Z,0.90
2022-09-26T13:32:00.968Z,0.70
2022-09-26T13:34:39.318Z,1.63
2022-09-26T13:37:17.513Z,1.00
2022-09-26T13:39:53.883Z,0.98
2022-09-26T13:42:37.786Z,0.60
2022-09-26T13:45:36.422Z,0.85
2022-09-26T13:48:10.435Z,0.93
2022-09-26T13:50:47.864Z,1.13
2022-09-26T13:53:21.358Z,0.80
2022-09-26T13:56:31.333Z,0.63
2022-09-26T13:59:09.790Z,0.80
2022-09-26T14:01:37.687Z,0.70
2022-09-26T14:04:32.664Z,0.60
2022-09-26T14:07:29.670Z,0.90
2022-09-26T14:10:13.789Z,1.10
2022-09-26T14:13:25.914Z,1.00
2022-09-26T14:15:59.680Z,1.05
2022-09-26T14:18:43.630Z,0.90
2022-09-26T14:21:14.879Z,0.70
2022-09-26T14:23:48.202Z,0.77
2022-09-26T14:26:40.709Z,0.63
2022-09-26T14:29:29.598Z,0.85
2022-09-26T14:32:04.435Z,0.63
2022-09-26T14:34:38.758Z,0.70
2022-09-26T14:37:26.751Z,0.82
2022-09-26T14:40:00.345Z,0.95
2022-09-26T14:42:39.609Z,1.88
2022-09-26T14:45:42.003Z,1.20
2022-09-26T14:48:20.430Z,1.10
2022-09-26T14:50:53.799Z,0.90
2022-09-26T14:53:30.311Z,1.20
2022-09-26T14:56:14.097Z,1.35
2022-09-26T14:58:45.338Z,1.17
2022-09-26T15:01:30.545Z,1.08
2022-09-26T15:04:06.006Z,0.90
2022-09-26T15:06:39.822Z,1.25
2022-09-26T15:09:12.955Z,1.08
2022-09-26T15:11:44.162Z,2.05
2022-09-26T15:14:40.888Z,0.95
2022-09-26T15:17:22.390Z,1.15
2022-09-26T15:19:54.671Z,1.00
2022-09-26T15:22:25.821Z,1.05
2022-09-26T15:25:08.613Z,1.50
2022-09-26T15:27:36.396Z,1.13
2022-09-26T15:30:19.175Z,1.20
2022-09-26T15:32:49.223Z,1.20
2022-09-26T15:35:16.975Z,1.25
2022-09-26T15:37:45.886Z,1.38
2022-09-26T15:40:19.702Z,1.00
2022-09-26T15:43:00.729Z,1.25
2022-09-26T15:45:35.258Z,1.52
2022-09-26T15:48:05.469Z,1.42
2022-09-26T15:53:20.162Z,1.20
2022-09-26T15:55:56.550Z,1.83
2022-09-26T15:58:45.563Z,1.20
2022-09-26T16:01:21.860Z,1.10
2022-09-26T16:04:00.047Z,1.63
2022-09-26T16:06:35.858Z,1.15
2022-09-26T16:09:28.551Z,1.50
2022-09-26T16:11:59.499Z,1.63
2022-09-26T16:14:32.753Z,1.20
2022-09-26T16:17:22.498Z,1.20
2022-09-26T16:19:54.788Z,2.20
2022-09-26T16:22:46.075Z,1.52
2022-09-26T16:25:20.348Z,1.50
2022-09-26T16:27:50.873Z,1.02
2022-09-26T16:30:25.487Z,1.30
2022-09-26T16:33:02.673Z,1.42
2022-09-26T16:35:33.549Z,1.35
2022-09-26T16:38:30.231Z,1.42
2022-09-26T16:41:08.531Z,1.02
2022-09-26T16:43:37.822Z,1.27
2022-09-26T16:46:17.495Z,1.42
2022-09-26T16:48:51.545Z,1.23
2022-09-26T16:51:27.285Z,1.27
2022-09-26T16:54:16.086Z,1.10
2022-09-26T16:56:44.826Z,1.38
2022-09-26T16:59:17.639Z,1.10
2022-09-26T17:01:54.509Z,1.48
2022-09-26T17:04:33.150Z,1.10
2022-09-26T17:07:07.429Z,1.25
2022-09-26T17:09:37.153Z,1.75
2022-09-26T17:12:22.831Z,1.52
2022-09-26T17:14:52.101Z,1.33
2022-09-26T17:17:25.259Z,0.70
2022-09-26T17:19:59.553Z,1.13
2022-09-26T17:22:28.224Z,0.80
2022-09-26T17:24:55.736Z,0.40
2022-09-26T17:27:34.123Z,0.40
2022-09-26T17:30:03.513Z,0.80
2022-09-26T17:32:33.793Z,0.47
2022-09-26T17:35:08.263Z,0.60
2022-09-26T17:37:35.851Z,0.65
2022-09-26T17:40:06.238Z,0.47
2022-09-26T17:42:33.778Z,0.80
2022-09-26T17:45:01.287Z,0.50
2022-09-26T17:47:29.211Z,1.10
2022-09-26T17:49:57.379Z,0.80
2022-09-26T17:52:29.151Z,0.75
2022-09-26T17:55:01.655Z,0.80
2022-09-26T17:57:34.508Z,1.30
2022-09-26T18:00:11.081Z,0.68
2022-09-26T18:02:43.799Z,1.20
2022-09-26T18:05:18.163Z,0.88
2022-09-26T18:07:47.189Z,0.80
2022-09-26T18:10:21.811Z,0.88
2022-09-26T18:12:57.355Z,9.13
2022-09-26T18:15:26.689Z,4.25
2022-09-26T18:17:54.301Z,1.20
2022-09-26T18:20:36.188Z,3.85
2022-09-26T18:23:06.805Z,1.65
2022-09-26T18:25:37.438Z,1.20
2022-09-26T18:28:13.930Z,1.27
2022-09-26T18:30:47.684Z,1.17
2022-09-26T18:33:16.936Z,0.98
2022-09-26T18:35:45.717Z,0.77
2022-09-26T18:38:13.894Z,0.80
2022-09-26T18:40:46.767Z,1.08
2022-09-26T18:43:22.413Z,1.27
2022-09-26T18:45:50.450Z,1.85
2022-09-26T18:48:29.326Z,1.15
2022-09-26T18:50:57.652Z,1.73
2022-09-26T18:53:29.546Z,1.85
2022-09-26T18:56:15.626Z,1.23
2022-09-26T18:58:48.414Z,1.20
2022-09-26T19:01:27.424Z,1.00
2022-09-26T19:03:58.979Z,1.50
2022-09-26T19:06:41.715Z,1.80
2022-09-26T19:09:20.218Z,1.05
2022-09-26T19:11:47.964Z,1.25
2022-09-26T19:14:22.553Z,1.42
2022-09-26T19:16:50.605Z,1.33
2022-09-26T19:19:19.340Z,1.23
2022-09-26T19:21:49.709Z,2.75
2022-09-26T19:26:59.011Z,1.42
2022-09-26T19:29:38.785Z,1.38
2022-09-26T19:32:07.163Z,1.25
2022-09-26T19:34:34.835Z,1.48
2022-09-26T19:37:03.990Z,1.48
2022-09-26T19:39:32.008Z,1.27
2022-09-26T19:41:59.526Z,1.40
2022-09-26T19:44:27.151Z,1.23
2022-09-26T19:46:54.886Z,1.20
2022-09-26T19:49:29.848Z,1.45
2022-09-26T19:52:01.105Z,0.85
2022-09-26T19:54:28.742Z,1.30
2022-09-26T19:56:56.414Z,0.95
2022-09-26T19:59:27.369Z,1.42
2022-09-26T20:01:55.371Z,0.93
2022-09-26T20:04:23.228Z,0.82
2022-09-26T20:06:50.795Z,0.80
2022-09-26T20:09:19.536Z,1.15
2022-09-26T20:11:47.137Z,1.20
2022-09-26T20:14:23.455Z,1.05
2022-09-26T20:16:53.791Z,1.00
2022-09-26T20:19:34.439Z,0.65
2022-09-26T20:22:04.278Z,0.85
2022-09-26T20:24:33.791Z,0.70
2022-09-26T20:27:04.309Z,0.70
2022-09-26T20:29:51.823Z,0.55
2022-09-26T20:32:19.437Z,1.10
2022-09-26T20:34:46.968Z,0.85
2022-09-26T20:37:15.126Z,0.75
2022-09-26T20:39:43.752Z,2.20
2022-09-26T20:42:17.589Z,0.82
2022-09-26T20:44:47.721Z,0.80
2022-09-26T20:47:20.194Z,0.70
2022-09-26T20:50:00.858Z,0.60
2022-09-26T20:52:30.316Z,0.50
2022-09-26T20:54:58.036Z,0.73
2022-09-26T20:57:25.916Z,1.20
2022-09-26T20:59:53.737Z,0.93
2022-09-26T21:02:32.082Z,0.77
2022-09-26T21:05:01.402Z,0.90
2022-09-26T21:07:31.628Z,0.75
2022-09-26T21:09:59.287Z,0.80
2022-09-26T21:12:27.019Z,0.80
2022-09-26T21:14:54.454Z,1.10
2022-09-26T21:17:27.347Z,0.60
2022-09-26T21:19:55.795Z,1.00
2022-09-26T21:22:54.474Z,0.57
2022-09-26T21:25:24.232Z,0.73
2022-09-26T21:27:56.123Z,0.60
2022-09-26T21:30:23.973Z,0.75
2022-09-26T21:32:59.303Z,0.70
2022-09-26T21:35:32.078Z,0.65
2022-09-26T21:38:01.080Z,0.50
2022-09-26T21:40:32.682Z,0.70
2022-09-26T21:43:18.137Z,0.50
2022-09-26T21:45:46.442Z,0.90
2022-09-26T21:48:15.313Z,0.80
2022-09-26T21:50:56.786Z,0.70
2022-09-26T21:53:51.541Z,0.95
2022-09-26T21:56:25.730Z,0.77
2022-09-26T21:58:53.425Z,0.60
2022-09-26T22:01:21.027Z,0.50
2022-09-26T22:03:48.962Z,0.70
2022-09-26T22:06:16.635Z,0.32
2022-09-26T22:08:44.118Z,0.70
2022-09-26T22:11:12.766Z,0.70
2022-09-26T22:13:40.570Z,0.60
2022-09-26T22:16:11.429Z,0.55
2022-09-26T22:18:40.327Z,0.60
2022-09-26T22:21:09.647Z,0.50
2022-09-26T22:23:37.640Z,0.40
2022-09-26T22:26:06.203Z,0.40
2022-09-26T22:28:33.821Z,0.70
2022-09-26T22:31:02.680Z,0.50
2022-09-26T22:33:31.472Z,0.40
2022-09-26T22:35:59.257Z,0.55
2022-09-26T22:38:27.259Z,0.80
2022-09-26T22:41:03.255Z,1.20
2022-09-26T22:43:31.999Z,0.80
2022-09-26T22:46:11.563Z,0.50
2022-09-26T22:48:41.858Z,1.05
2022-09-26T22:51:10.239Z,0.70
2022-09-26T22:53:39.366Z,0.47
2022-09-26T22:56:09.633Z,0.60
2022-09-26T22:58:39.814Z,0.55
2022-09-26T23:01:10.323Z,0.40
2022-09-26T23:03:38.346Z,0.47
2022-09-26T23:06:06.775Z,0.60
2022-09-26T23:08:35.285Z,0.95
2022-09-26T23:11:03.956Z,0.63
2022-09-26T23:13:32.856Z,0.60
2022-09-26T23:16:14.372Z,1.10
2022-09-26T23:18:42.888Z,1.10
2022-09-26T23:21:22.041Z,0.55
2022-09-26T23:23:51.987Z,0.60
2022-09-26T23:26:25.085Z,0.77
2022-09-26T23:28:54.102Z,0.60
2022-09-26T23:31:23.062Z,0.57
2022-09-26T23:33:52.037Z,0.52
2022-09-26T23:36:19.788Z,0.50
2022-09-26T23:38:47.617Z,0.60
2022-09-26T23:41:16.798Z,0.68
2022-09-26T23:43:46.313Z,0.70
2022-09-26T23:46:14.508Z,0.57
2022-09-26T23:48:42.659Z,0.50
2022-09-26T23:51:10.661Z,0.65
2022-09-26T23:53:38.170Z,0.95
2022-09-26T23:56:07.753Z,0.95
2022-09-26T23:58:35.887Z,0.95
